Time;durP1;ratioP1;P1;durP2;ratioP2;P2;SDS_P1;SDS_P2;PMS_P1;PMS_P2;Temp;Humidity;BMP_temperature;BMP_pressure;BME280_temperature;BME280_humidity;BME280_pressure;Samples;Min_cycle;Max_cycle;Signal;HPM_P1;HPM_P2
2021/12/16 00:08:32;;;;;;;47.50;22.53;;;9.10;99.90;;;;;;5182418;28;20419;-54
2021/12/16 00:33:40;;;;;;;47.47;24.63;;;9.00;99.90;;;;;;5180136;28;20459;-50
2021/12/16 00:36:12;;;;;;;56.13;25.53;;;9.00;99.90;;;;;;5182306;28;20431;-51
2021/12/16 00:38:43;;;;;;;47.13;24.00;;;9.00;99.90;;;;;;5186848;28;20514;-50
2021/12/16 00:41:14;;;;;;;55.47;23.90;;;9.00;99.90;;;;;;5192279;28;20490;-50
2021/12/16 00:43:54;;;;;;;51.20;26.13;;;9.00;99.90;;;;;;5170020;28;20455;-51
2021/12/16 00:47:24;;;;;;;52.90;23.40;;;9.00;99.90;;;;;;5186425;28;20551;-50
2021/12/16 00:54:58;;;;;;;43.97;23.80;;;9.00;99.90;;;;;;5191485;28;20469;-50
2021/12/16 00:57:29;;;;;;;45.93;23.10;;;9.00;99.90;;;;;;5168180;28;20431;-50
2021/12/16 01:00:03;;;;;;;48.00;25.70;;;9.00;99.90;;;;;;5186725;28;20509;-52
2021/12/16 01:33:35;;;;;;;56.20;25.73;;;8.90;99.90;;;;;;5155932;28;20422;-50
2021/12/16 01:33:50;;;;;;;60.67;28.10;;;8.70;99.90;;;;;;5181846;28;20826;-50
2021/12/16 01:47:42;;;;;;;60.33;27.33;;;8.50;99.90;;;;;;5187565;28;20447;-50
2021/12/16 01:50:21;;;;;;;50.80;24.83;;;8.50;99.90;;;;;;5184728;28;20431;-51
2021/12/16 01:53:05;;;;;;;65.87;25.63;;;8.40;99.90;;;;;;5166997;28;20485;-51
2021/12/16 01:56:00;;;;;;;58.87;26.90;;;8.50;99.90;;;;;;5172956;28;20463;-50
2021/12/16 01:58:33;;;;;;;46.40;24.37;;;8.40;99.90;;;;;;5196324;28;20438;-49
2021/12/16 02:01:19;;;;;;;44.37;23.03;;;8.40;99.90;;;;;;5185447;28;20431;-51
2021/12/16 02:03:56;;;;;;;49.73;22.77;;;8.40;99.90;;;;;;5163521;28;20549;-50
2021/12/16 02:09:16;;;;;;;53.77;21.63;;;8.40;99.90;;;;;;5185178;28;20442;-50
2021/12/16 02:32:10;;;;;;;31.77;14.80;;;8.50;99.90;;;;;;5186014;28;20454;-49
2021/12/16 02:34:31;;;;;;;25.97;14.47;;;8.50;99.90;;;;;;5176025;28;20636;-50
2021/12/16 02:37:01;;;;;;;25.67;12.80;;;8.50;99.90;;;;;;5184810;28;20505;-51
2021/12/16 02:39:34;;;;;;;21.97;14.37;;;8.50;99.90;;;;;;5186693;28;21039;-50
2021/12/16 02:42:13;;;;;;;17.80;12.77;;;8.50;99.90;;;;;;5180991;28;20208;-51
2021/12/16 02:50:27;;;;;;;21.20;11.53;;;8.50;99.90;;;;;;5192648;28;20442;-51
2021/12/16 02:52:57;;;;;;;17.80;11.60;;;8.50;99.90;;;;;;5185638;28;20475;-50
2021/12/16 02:55:28;;;;;;;18.47;11.80;;;8.50;99.90;;;;;;5186159;28;20200;-50
2021/12/16 02:58:00;;;;;;;20.83;12.27;;;8.50;99.90;;;;;;5180581;28;20247;-51
2021/12/16 03:00:38;;;;;;;21.70;10.60;;;8.50;99.90;;;;;;5187000;28;20207;-52
2021/12/16 03:03:09;;;;;;;24.53;11.73;;;8.50;99.90;;;;;;5180161;28;20423;-50
2021/12/16 03:05:39;;;;;;;29.97;11.63;;;8.50;99.90;;;;;;5193487;28;20957;-51
2021/12/16 03:08:12;;;;;;;18.13;10.03;;;8.50;99.90;;;;;;5179499;28;20184;-52
2021/12/16 03:13:40;;;;;;;14.60;9.73;;;8.50;99.90;;;;;;5181571;28;20482;-51
2021/12/16 03:16:23;;;;;;;22.10;10.37;;;8.50;99.90;;;;;;5188157;28;20517;-50
2021/12/16 03:19:12;;;;;;;15.20;9.87;;;8.50;99.90;;;;;;5179705;28;20515;-50
2021/12/16 03:21:48;;;;;;;19.90;10.43;;;8.60;99.90;;;;;;5174745;28;20431;-50
2021/12/16 03:28:07;;;;;;;18.53;10.23;;;8.50;99.90;;;;;;5183638;28;20454;-50
2021/12/16 03:30:20;;;;;;;14.53;10.00;;;8.50;99.90;;;;;;5177390;28;20655;-50
2021/12/16 03:33:19;;;;;;;13.43;10.00;;;8.50;99.90;;;;;;5179621;28;20493;-50
2021/12/16 03:36:04;;;;;;;32.07;10.50;;;8.50;99.90;;;;;;5189860;28;20917;-51
2021/12/16 03:38:37;;;;;;;16.53;9.30;;;8.40;99.90;;;;;;5182847;28;20431;-49
2021/12/16 03:41:09;;;;;;;16.80;10.87;;;8.40;99.90;;;;;;5192446;28;20439;-50
2021/12/16 03:43:40;;;;;;;23.00;11.20;;;8.40;99.90;;;;;;5182420;28;20528;-50
2021/12/16 03:48:59;;;;;;;28.80;11.10;;;8.50;99.90;;;;;;5183613;28;20504;-49
2021/12/16 03:51:38;;;;;;;15.50;10.40;;;8.50;99.90;;;;;;5182565;28;20527;-52
2021/12/16 03:54:23;;;;;;;23.77;9.87;;;8.50;99.90;;;;;;5166266;28;20465;-51
2021/12/16 03:56:55;;;;;;;18.97;11.00;;;8.40;99.90;;;;;;5166357;28;20431;-50
2021/12/16 03:59:29;;;;;;;19.60;10.97;;;8.50;99.90;;;;;;5155741;28;20438;-51
2021/12/16 04:02:09;;;;;;;17.20;10.07;;;8.50;99.90;;;;;;5195951;28;20446;-49
2021/12/16 04:04:41;;;;;;;24.60;9.90;;;8.50;99.90;;;;;;5169754;28;20474;-51
2021/12/16 04:07:12;;;;;;;18.47;10.57;;;8.60;99.90;;;;;;5196459;28;20965;-50
2021/12/16 04:09:43;;;;;;;17.70;9.20;;;8.50;99.90;;;;;;5176017;28;20467;-49
2021/12/16 04:12:19;;;;;;;16.27;9.60;;;8.50;99.90;;;;;;5169156;28;20184;-51
2021/12/16 04:14:53;;;;;;;22.23;9.37;;;8.60;99.90;;;;;;5185960;28;20575;-50
2021/12/16 04:17:29;;;;;;;16.20;10.37;;;8.50;99.90;;;;;;5185630;28;20922;-49
2021/12/16 04:20:04;;;;;;;16.53;10.33;;;8.50;99.90;;;;;;5204892;28;20446;-49
2021/12/16 04:22:42;;;;;;;16.80;9.67;;;8.60;99.90;;;;;;5169618;28;20512;-50
2021/12/16 04:25:21;;;;;;;19.87;10.67;;;8.50;99.90;;;;;;5179055;28;20476;-49
2021/12/16 04:27:55;;;;;;;14.17;9.87;;;8.50;99.90;;;;;;5200158;28;20954;-49
2021/12/16 04:30:28;;;;;;;13.30;9.40;;;8.50;99.90;;;;;;5173789;28;20935;-50
2021/12/16 04:32:59;;;;;;;20.47;11.30;;;8.50;99.90;;;;;;5200244;28;20450;-49
2021/12/16 04:35:30;;;;;;;18.37;10.40;;;8.50;99.90;;;;;;5191557;28;20533;-50
2021/12/16 04:38:01;;;;;;;17.30;9.60;;;8.50;99.90;;;;;;5182787;28;20471;-50
2021/12/16 04:40:32;;;;;;;18.60;10.40;;;8.50;99.90;;;;;;5188409;28;20649;-49
2021/12/16 04:43:05;;;;;;;14.83;10.07;;;8.50;99.90;;;;;;5186159;28;20653;-50
2021/12/16 04:45:36;;;;;;;26.07;10.63;;;8.60;99.90;;;;;;5172526;28;20431;-49
2021/12/16 04:48:06;;;;;;;17.47;10.03;;;8.60;99.90;;;;;;5182776;28;20443;-51
2021/12/16 04:50:37;;;;;;;28.63;10.80;;;8.50;99.90;;;;;;5173233;28;20233;-51
2021/12/16 04:53:07;;;;;;;15.70;9.93;;;8.50;99.90;;;;;;5184036;28;20211;-50
2021/12/16 04:55:38;;;;;;;18.33;10.00;;;8.50;99.90;;;;;;5201029;28;20192;-51
2021/12/16 04:58:09;;;;;;;18.53;10.17;;;8.50;99.90;;;;;;5184070;28;20191;-52
2021/12/16 05:00:39;;;;;;;20.60;10.53;;;8.50;99.90;;;;;;5180008;28;20212;-51
2021/12/16 05:03:10;;;;;;;16.03;11.43;;;8.40;99.90;;;;;;5181884;28;20590;-50
2021/12/16 05:05:41;;;;;;;20.43;11.57;;;8.50;99.90;;;;;;5168058;28;20184;-49
2021/12/16 05:08:11;;;;;;;20.80;11.80;;;8.40;99.90;;;;;;5189572;28;20183;-51
2021/12/16 05:10:43;;;;;;;15.27;11.00;;;8.40;99.90;;;;;;5184861;28;20220;-49
2021/12/16 05:13:16;;;;;;;16.70;11.37;;;8.30;99.90;;;;;;5184581;28;20296;-51
2021/12/16 05:15:47;;;;;;;20.93;12.60;;;8.30;99.90;;;;;;5166853;28;20474;-49
2021/12/16 05:18:22;;;;;;;17.47;11.30;;;8.30;99.90;;;;;;5195931;28;20514;-49
2021/12/16 05:20:53;;;;;;;23.83;13.23;;;8.30;99.90;;;;;;5190229;28;20431;-50
2021/12/16 05:26:20;;;;;;;21.47;12.90;;;8.30;99.90;;;;;;5188063;28;20457;-50
2021/12/16 05:28:57;;;;;;;23.13;13.70;;;8.30;99.90;;;;;;5160343;28;20490;-51
2021/12/16 05:31:28;;;;;;;31.07;13.60;;;8.20;99.90;;;;;;5155064;28;20475;-50
2021/12/16 05:33:59;;;;;;;30.60;13.20;;;8.20;99.90;;;;;;5169440;28;20494;-50
2021/12/16 05:36:30;;;;;;;20.77;13.43;;;8.10;99.90;;;;;;5186506;28;20724;-50
2021/12/16 05:39:02;;;;;;;23.60;14.50;;;8.00;99.90;;;;;;5165041;28;20531;-50
2021/12/16 05:41:33;;;;;;;24.30;14.83;;;8.10;99.90;;;;;;5186752;28;20570;-50
2021/12/16 05:44:04;;;;;;;32.93;15.70;;;8.00;99.90;;;;;;5183742;28;20469;-50
2021/12/16 05:46:37;;;;;;;28.47;14.63;;;8.00;99.90;;;;;;5180866;28;20831;-50
2021/12/16 05:49:10;;;;;;;31.43;15.80;;;7.90;99.90;;;;;;5161941;28;20446;-49
2021/12/16 05:51:44;;;;;;;27.90;14.67;;;7.80;99.90;;;;;;5177406;28;20499;-49
2021/12/16 05:54:15;;;;;;;22.67;15.00;;;7.90;99.90;;;;;;5153133;28;20558;-51
2021/12/16 05:56:47;;;;;;;32.63;16.90;;;7.80;99.90;;;;;;5178585;28;20443;-50
2021/12/16 05:59:19;;;;;;;34.10;16.37;;;7.70;99.90;;;;;;5187882;28;20431;-49
2021/12/16 06:01:50;;;;;;;31.67;15.90;;;7.70;99.90;;;;;;5162653;28;20428;-51
2021/12/16 06:04:21;;;;;;;23.00;13.27;;;7.80;99.90;;;;;;5168321;28;20812;-49
2021/12/16 06:06:51;;;;;;;28.60;15.27;;;7.80;99.90;;;;;;5157800;28;20473;-50
2021/12/16 06:09:22;;;;;;;29.37;15.40;;;7.70;99.90;;;;;;5189699;28;20184;-54
2021/12/16 06:11:54;;;;;;;23.27;14.17;;;7.80;99.90;;;;;;5183598;28;20537;-50
2021/12/16 06:26:28;;;;;;;29.40;16.00;;;7.90;99.90;;;;;;5183504;28;20449;-51
2021/12/16 06:28:48;;;;;;;33.87;15.80;;;7.90;99.90;;;;;;5168850;28;20550;-49
2021/12/16 06:31:19;;;;;;;32.53;14.90;;;8.00;99.90;;;;;;5145762;28;20439;-50
2021/12/16 06:33:50;;;;;;;30.47;14.70;;;7.90;99.90;;;;;;5178790;28;20238;-52
2021/12/16 06:36:21;;;;;;;23.93;15.27;;;8.00;99.90;;;;;;5180410;28;20279;-51
2021/12/16 06:38:51;;;;;;;41.40;14.27;;;8.00;99.90;;;;;;5163088;28;20219;-50
2021/12/16 06:41:22;;;;;;;27.30;14.47;;;8.00;99.90;;;;;;5179648;28;20203;-51
2021/12/16 06:43:55;;;;;;;23.17;14.60;;;8.00;99.90;;;;;;5176117;28;20238;-50
2021/12/16 06:46:32;;;;;;;18.60;12.60;;;8.00;99.90;;;;;;5164481;28;20470;-51
2021/12/16 06:49:04;;;;;;;29.67;16.73;;;8.00;99.90;;;;;;5159935;28;20439;-49
2021/12/16 06:51:43;;;;;;;21.73;12.10;;;8.00;99.90;;;;;;5178823;28;20435;-51
2021/12/16 06:54:23;;;;;;;24.13;13.00;;;8.00;99.90;;;;;;5178901;28;20857;-51
2021/12/16 06:57:16;;;;;;;27.87;15.13;;;8.00;99.90;;;;;;5159862;28;20426;-49
2021/12/16 07:00:06;;;;;;;25.93;13.00;;;8.00;99.90;;;;;;5178815;28;21297;-50
2021/12/16 07:05:13;;;;;;;30.27;14.40;;;8.10;99.90;;;;;;5178791;28;20483;-50
2021/12/16 07:07:44;;;;;;;31.10;16.20;;;8.00;99.90;;;;;;5181781;28;20506;-50
2021/12/16 07:10:17;;;;;;;26.27;13.57;;;8.00;99.90;;;;;;5164557;28;20449;-50
2021/12/16 07:12:49;;;;;;;25.27;13.13;;;8.00;99.90;;;;;;5183223;28;20472;-50
2021/12/16 07:15:26;;;;;;;21.53;13.20;;;8.10;99.90;;;;;;5162569;28;20545;-51
2021/12/16 07:17:57;;;;;;;33.67;14.70;;;8.10;99.90;;;;;;5176942;28;21651;-51
2021/12/16 07:20:30;;;;;;;29.20;13.50;;;8.10;99.90;;;;;;5186732;28;20511;-50
2021/12/16 07:23:03;;;;;;;25.57;13.90;;;8.10;99.90;;;;;;5161797;28;20682;-51
2021/12/16 07:25:35;;;;;;;31.47;16.23;;;8.10;99.90;;;;;;5185282;28;20475;-49
2021/12/16 07:28:07;;;;;;;23.33;14.30;;;8.10;99.90;;;;;;5155477;28;20436;-51
2021/12/16 07:30:41;;;;;;;33.97;14.90;;;8.10;99.90;;;;;;5180049;28;20443;-51
2021/12/16 07:33:12;;;;;;;21.53;13.60;;;8.10;99.90;;;;;;5195839;28;20466;-50
2021/12/16 07:35:45;;;;;;;29.40;13.80;;;8.10;99.90;;;;;;5165366;28;20435;-51
2021/12/16 07:38:16;;;;;;;21.33;13.30;;;8.20;99.90;;;;;;5180826;28;21085;-51
2021/12/16 07:40:50;;;;;;;29.63;13.70;;;8.20;99.90;;;;;;5174590;28;20438;-49
2021/12/16 07:43:27;;;;;;;40.70;14.90;;;8.20;99.90;;;;;;5177997;28;20537;-50
2021/12/16 07:45:58;;;;;;;31.30;13.30;;;8.20;99.90;;;;;;5158937;28;21027;-51
2021/12/16 07:48:28;;;;;;;24.63;15.27;;;8.20;99.90;;;;;;5178567;28;20439;-50
2021/12/16 07:51:01;;;;;;;31.67;14.80;;;8.20;99.90;;;;;;5164449;28;20191;-50
2021/12/16 07:53:32;;;;;;;22.63;13.87;;;8.30;99.90;;;;;;5174837;28;20260;-51
2021/12/16 07:56:04;;;;;;;24.60;12.40;;;8.20;99.90;;;;;;5164828;28;20419;-51
2021/12/16 07:58:35;;;;;;;30.53;13.73;;;8.30;99.90;;;;;;5179005;28;20965;-50
2021/12/16 08:01:07;;;;;;;25.93;13.60;;;8.20;99.90;;;;;;5174649;28;20423;-50
2021/12/16 08:03:38;;;;;;;21.23;12.40;;;8.20;99.90;;;;;;5176302;28;20469;-51
2021/12/16 08:06:12;;;;;;;30.43;13.33;;;8.10;99.90;;;;;;5179781;28;20782;-50
2021/12/16 08:08:43;;;;;;;30.40;13.93;;;8.10;99.90;;;;;;5189990;28;20443;-52
2021/12/16 08:11:14;;;;;;;26.13;13.40;;;8.20;99.90;;;;;;5166687;28;20439;-49
2021/12/16 08:13:44;;;;;;;30.37;14.10;;;8.20;99.90;;;;;;5163239;28;20303;-51
2021/12/16 08:16:16;;;;;;;22.27;13.20;;;8.30;99.90;;;;;;5195956;28;20503;-49
2021/12/16 08:18:47;;;;;;;21.80;12.20;;;8.20;99.90;;;;;;5181923;28;20184;-50
2021/12/16 08:21:18;;;;;;;29.17;13.20;;;8.30;99.90;;;;;;5166854;28;20429;-51
2021/12/16 08:23:50;;;;;;;25.07;13.07;;;8.20;99.90;;;;;;5163255;28;20568;-51
2021/12/16 08:26:21;;;;;;;23.17;13.00;;;8.30;99.90;;;;;;5177947;28;20525;-52
2021/12/16 08:28:52;;;;;;;22.07;12.47;;;8.30;99.90;;;;;;5163433;28;20482;-50
2021/12/16 08:31:24;;;;;;;20.80;12.57;;;8.40;99.90;;;;;;5193037;28;20184;-51
2021/12/16 08:33:56;;;;;;;19.30;12.33;;;8.40;99.90;;;;;;5196059;28;20208;-49
2021/12/16 08:36:28;;;;;;;32.27;12.03;;;8.40;99.90;;;;;;5166349;28;20435;-50
2021/12/16 08:38:59;;;;;;;23.13;12.43;;;8.40;99.90;;;;;;5166014;28;20440;-51
2021/12/16 08:41:33;;;;;;;30.70;14.30;;;8.40;99.90;;;;;;5182697;28;20581;-49
2021/12/16 08:44:04;;;;;;;25.93;13.37;;;8.40;99.90;;;;;;5185278;28;20439;-51
2021/12/16 08:46:39;;;;;;;23.30;12.00;;;8.40;99.90;;;;;;5167377;28;21339;-52
2021/12/16 08:49:09;;;;;;;21.30;10.90;;;8.30;99.90;;;;;;5188670;28;20466;-51
2021/12/16 08:51:45;;;;;;;26.60;10.57;;;8.40;99.90;;;;;;5161534;28;20537;-49
2021/12/16 08:54:17;;;;;;;29.90;12.13;;;8.40;99.90;;;;;;5175783;28;20606;-50
2021/12/16 08:56:48;;;;;;;24.63;11.07;;;8.40;99.90;;;;;;5150523;28;20810;-50
2021/12/16 08:59:20;;;;;;;20.50;11.00;;;8.40;99.90;;;;;;5182326;28;20431;-50
2021/12/16 09:01:53;;;;;;;29.03;11.20;;;8.40;99.90;;;;;;5182741;28;20435;-51
2021/12/16 09:04:25;;;;;;;24.53;12.47;;;8.50;99.90;;;;;;5182865;28;20509;-52
2021/12/16 09:07:02;;;;;;;30.30;13.67;;;8.50;99.90;;;;;;5178489;28;20541;-51
2021/12/16 09:09:35;;;;;;;15.10;11.23;;;8.50;99.90;;;;;;5148103;28;20437;-51
2021/12/16 09:12:15;;;;;;;19.60;12.00;;;8.60;99.90;;;;;;5177826;28;20467;-50
2021/12/16 09:14:45;;;;;;;18.87;10.97;;;8.70;99.90;;;;;;5164123;28;20514;-54
2021/12/16 09:17:16;;;;;;;19.70;10.40;;;8.70;99.90;;;;;;5180993;28;20489;-50
2021/12/16 09:19:50;;;;;;;23.60;11.00;;;8.60;99.90;;;;;;5173199;28;20176;-50
2021/12/16 09:22:22;;;;;;;15.73;10.10;;;8.70;99.90;;;;;;5178145;28;20829;-51
2021/12/16 09:24:54;;;;;;;20.00;10.77;;;8.80;99.90;;;;;;5161679;28;20468;-51
2021/12/16 09:27:27;;;;;;;15.17;9.90;;;8.70;99.90;;;;;;5170014;23;20586;-50
2021/12/16 09:29:57;;;;;;;28.97;12.40;;;8.80;99.90;;;;;;5159003;28;20851;-54
2021/12/16 09:32:30;;;;;;;34.87;12.90;;;8.80;99.90;;;;;;5176916;28;20518;-52
2021/12/16 09:35:02;;;;;;;19.93;11.33;;;8.80;99.90;;;;;;5163062;28;20263;-51
2021/12/16 09:37:32;;;;;;;20.53;11.87;;;8.80;99.90;;;;;;5156252;28;20448;-53
2021/12/16 09:40:08;;;;;;;21.03;12.70;;;8.80;99.90;;;;;;5161016;28;20454;-52
2021/12/16 09:42:39;;;;;;;22.00;10.70;;;8.80;99.90;;;;;;5153615;28;20242;-51
2021/12/16 09:45:11;;;;;;;17.83;9.80;;;8.90;99.90;;;;;;5137647;28;20443;-54
2021/12/16 09:47:44;;;;;;;28.43;11.57;;;8.90;99.90;;;;;;5158094;28;20485;-52
2021/12/16 09:50:20;;;;;;;17.33;11.37;;;8.90;99.90;;;;;;5153815;28;20444;-50
2021/12/16 09:52:51;;;;;;;21.20;12.40;;;9.00;99.90;;;;;;5134050;28;20452;-51
2021/12/16 09:55:22;;;;;;;18.50;10.67;;;9.00;99.90;;;;;;5143835;28;20490;-50
2021/12/16 09:57:54;;;;;;;17.63;11.10;;;9.00;99.90;;;;;;5160022;28;20459;-50
2021/12/16 10:00:28;;;;;;;19.97;10.50;;;9.00;99.90;;;;;;5151924;28;20444;-52
2021/12/16 10:03:01;;;;;;;13.03;10.40;;;9.00;99.90;;;;;;5147788;28;20445;-51
2021/12/16 10:05:34;;;;;;;15.07;11.03;;;9.00;99.90;;;;;;5153562;28;20825;-51
2021/12/16 10:08:05;;;;;;;14.97;10.47;;;9.00;99.90;;;;;;5159935;28;20452;-51
2021/12/16 10:10:37;;;;;;;16.20;8.70;;;9.00;99.90;;;;;;5154542;28;20451;-52
2021/12/16 10:13:08;;;;;;;18.27;10.37;;;9.00;99.90;;;;;;5127750;28;20519;-52
2021/12/16 10:18:16;;;;;;;20.33;9.60;;;9.00;99.90;;;;;;5156778;28;20463;-52
2021/12/16 10:20:59;;;;;;;15.73;9.60;;;9.00;99.90;;;;;;5150981;28;20455;-52
2021/12/16 10:23:36;;;;;;;13.07;8.53;;;9.10;99.90;;;;;;5155408;28;21038;-52
2021/12/16 10:26:13;;;;;;;12.67;8.70;;;9.10;99.90;;;;;;5140367;28;20448;-53
2021/12/16 10:28:47;;;;;;;15.27;9.80;;;9.20;99.90;;;;;;5147206;28;20491;-51
2021/12/16 10:31:30;;;;;;;11.73;8.67;;;9.30;99.90;;;;;;5135361;28;20428;-54
2021/12/16 10:34:07;;;;;;;13.77;9.23;;;9.30;99.90;;;;;;5140294;28;20463;-53
2021/12/16 10:36:45;;;;;;;12.50;8.00;;;9.30;99.90;;;;;;5159540;28;20502;-53
2021/12/16 10:39:19;;;;;;;18.17;9.03;;;9.40;99.90;;;;;;5162500;28;20846;-51
2021/12/16 10:41:52;;;;;;;11.20;8.87;;;9.40;99.90;;;;;;5160198;28;20432;-51
2021/12/16 10:44:25;;;;;;;9.20;8.03;;;9.40;99.90;;;;;;5140674;28;20904;-52
2021/12/16 10:47:12;;;;;;;11.53;8.17;;;9.40;99.90;;;;;;5150300;28;20452;-53
2021/12/16 10:49:49;;;;;;;24.87;8.57;;;9.50;99.90;;;;;;5139635;28;20466;-53
2021/12/16 10:52:27;;;;;;;11.83;8.43;;;9.40;99.90;;;;;;5141813;28;20447;-56
2021/12/16 10:54:59;;;;;;;11.57;7.70;;;9.50;99.90;;;;;;5158234;28;20471;-53
2021/12/16 10:57:31;;;;;;;10.07;7.47;;;9.60;99.90;;;;;;5160599;28;20458;-52
2021/12/16 11:00:12;;;;;;;11.83;6.60;;;9.70;99.90;;;;;;5161131;28;20443;-54
2021/12/16 11:02:43;;;;;;;7.37;5.90;;;9.70;99.90;;;;;;5142267;28;20440;-52
2021/12/16 11:05:24;;;;;;;7.13;6.20;;;9.70;99.90;;;;;;5141812;28;20451;-52
2021/12/16 11:07:58;;;;;;;8.63;5.87;;;9.80;99.90;;;;;;5159478;28;20212;-52
2021/12/16 11:10:33;;;;;;;16.53;10.00;;;9.70;99.90;;;;;;5144807;28;20800;-53
2021/12/16 11:13:08;;;;;;;7.83;7.10;;;9.80;99.90;;;;;;5129016;28;20468;-53
2021/12/16 11:15:46;;;;;;;13.90;6.20;;;9.80;99.90;;;;;;5155438;28;20814;-50
2021/12/16 11:18:21;;;;;;;7.83;5.40;;;10.00;99.90;;;;;;5135733;28;20534;-54
2021/12/16 11:21:09;;;;;;;9.10;5.57;;;10.10;99.90;;;;;;5133084;28;20451;-54
2021/12/16 11:23:42;;;;;;;8.10;5.50;;;10.30;99.90;;;;;;5141953;28;20479;-51
2021/12/16 11:26:26;;;;;;;7.43;5.20;;;10.30;99.90;;;;;;5136857;28;20445;-51
2021/12/16 11:28:56;;;;;;;5.73;5.20;;;10.30;99.90;;;;;;5138498;28;20829;-52
2021/12/16 11:31:31;;;;;;;5.83;5.30;;;10.40;99.90;;;;;;5136962;28;20456;-52
2021/12/16 11:34:07;;;;;;;7.90;5.67;;;10.30;99.90;;;;;;5148909;28;20218;-52
2021/12/16 11:36:40;;;;;;;11.10;5.83;;;10.40;99.90;;;;;;5154086;28;20815;-55
2021/12/16 11:39:15;;;;;;;6.93;5.07;;;10.30;99.90;;;;;;5158097;28;20456;-53
2021/12/16 11:41:48;;;;;;;5.53;4.63;;;10.30;99.90;;;;;;5141408;28;20459;-51
2021/12/16 11:44:19;;;;;;;10.80;5.10;;;10.30;99.90;;;;;;5157743;28;20871;-53
2021/12/16 11:47:04;;;;;;;5.50;4.43;;;10.40;99.90;;;;;;5158144;28;20539;-55
2021/12/16 11:49:40;;;;;;;5.30;4.30;;;10.40;99.90;;;;;;5155476;28;20233;-53
2021/12/16 11:52:13;;;;;;;4.67;4.27;;;10.40;99.90;;;;;;5160101;28;20444;-51
2021/12/16 11:54:56;;;;;;;6.50;4.83;;;10.40;99.90;;;;;;5140773;28;20468;-52
2021/12/16 11:57:29;;;;;;;7.13;5.20;;;10.20;99.90;;;;;;5151618;28;20473;-52
2021/12/16 12:00:14;;;;;;;5.50;4.80;;;10.20;99.90;;;;;;5155042;28;20437;-51
2021/12/16 12:02:52;;;;;;;6.37;5.20;;;10.30;99.90;;;;;;5159021;28;20479;-50
2021/12/16 12:05:24;;;;;;;4.17;3.67;;;10.10;99.90;;;;;;5151972;28;20439;-53
2021/12/16 12:08:05;;;;;;;5.23;4.13;;;10.00;99.90;;;;;;5137810;28;20503;-51
2021/12/16 12:10:53;;;;;;;9.60;5.30;;;9.90;99.90;;;;;;5162847;28;20463;-51
2021/12/16 12:13:27;;;;;;;9.03;5.23;;;10.00;99.90;;;;;;5149663;28;20467;-53
2021/12/16 12:16:09;;;;;;;7.63;4.50;;;10.00;99.90;;;;;;5154733;28;20440;-51
2021/12/16 12:18:57;;;;;;;5.30;3.33;;;9.80;99.90;;;;;;5140248;28;20513;-52
2021/12/16 12:21:41;;;;;;;3.73;3.37;;;9.70;99.90;;;;;;5154565;28;20436;-52
2021/12/16 12:24:18;;;;;;;10.20;4.63;;;9.60;99.90;;;;;;5156550;28;20443;-51
2021/12/16 12:27:01;;;;;;;4.37;4.00;;;9.50;99.90;;;;;;5155028;28;20440;-52
2021/12/16 12:29:33;;;;;;;7.57;4.67;;;9.60;99.90;;;;;;5157622;28;20436;-55
2021/12/16 12:32:06;;;;;;;4.83;3.73;;;9.50;99.90;;;;;;5142554;28;20472;-51
2021/12/16 12:34:39;;;;;;;4.53;3.40;;;9.50;99.90;;;;;;5153086;28;20474;-54
2021/12/16 12:37:13;;;;;;;14.97;5.40;;;9.50;99.90;;;;;;5155458;28;20475;-53
2021/12/16 12:39:49;;;;;;;5.63;4.60;;;9.40;99.90;;;;;;5141754;28;20444;-52
2021/12/16 12:42:20;;;;;;;15.47;5.63;;;9.50;99.90;;;;;;5139681;28;21633;-52
2021/12/16 12:44:50;;;;;;;8.17;4.90;;;9.50;99.90;;;;;;5156409;28;20456;-53
2021/12/16 12:47:29;;;;;;;10.63;6.87;;;9.40;99.90;;;;;;5143019;28;20205;-54
2021/12/16 12:50:23;;;;;;;5.70;4.57;;;9.50;99.90;;;;;;5137439;28;20196;-53
2021/12/16 12:52:56;;;;;;;8.30;5.90;;;9.40;99.90;;;;;;5158217;28;20448;-51
2021/12/16 12:55:31;;;;;;;4.80;3.80;;;9.30;99.90;;;;;;5156050;28;21124;-52
2021/12/16 12:58:06;;;;;;;4.87;2.43;;;9.30;99.90;;;;;;5159543;28;20466;-52
2021/12/16 13:00:43;;;;;;;4.90;3.47;;;9.20;99.90;;;;;;5154972;28;20435;-52
2021/12/16 13:03:28;;;;;;;8.47;3.27;;;9.20;99.90;;;;;;5154149;28;20440;-52
2021/12/16 13:06:04;;;;;;;14.83;3.83;;;9.20;99.90;;;;;;5158203;28;20484;-52
2021/12/16 13:08:39;;;;;;;12.63;3.80;;;9.10;99.90;;;;;;5142463;28;20606;-53
2021/12/16 13:11:18;;;;;;;7.43;4.00;;;9.10;99.90;;;;;;5147507;28;20431;-51
2021/12/16 13:14:08;;;;;;;4.40;3.73;;;9.00;99.90;;;;;;5139036;28;20562;-54
2021/12/16 13:17:31;;;;;;;5.87;3.50;;;9.00;99.90;;;;;;5153605;28;20464;-53
2021/12/16 13:28:38;;;;;;;25.27;4.10;;;9.00;99.90;;;;;;5156064;28;20813;-55
2021/12/16 13:31:53;;;;;;;4.67;2.87;;;9.00;99.90;;;;;;5157459;28;20573;-54
2021/12/16 13:34:33;;;;;;;7.20;3.70;;;9.00;99.90;;;;;;5145051;28;20878;-53
2021/12/16 13:37:22;;;;;;;8.80;3.90;;;8.90;99.90;;;;;;5155709;28;20440;-53
2021/12/16 13:40:00;;;;;;;5.43;3.50;;;8.90;99.90;;;;;;5143368;28;20453;-53
2021/12/16 13:43:00;;;;;;;6.47;3.30;;;8.80;99.90;;;;;;5134747;28;20443;-53
2021/12/16 13:45:42;;;;;;;5.60;3.77;;;8.80;99.90;;;;;;5138764;28;20449;-55
2021/12/16 13:48:57;;;;;;;9.07;3.80;;;8.70;99.90;;;;;;5156404;28;20502;-52
2021/12/16 14:01:25;;;;;;;4.83;3.00;;;8.70;99.90;;;;;;5157904;28;20526;-53
2021/12/16 14:04:13;;;;;;;5.07;3.33;;;8.60;99.90;;;;;;5140796;28;20449;-51
2021/12/16 14:06:57;;;;;;;8.37;4.20;;;8.60;99.90;;;;;;5156691;28;20437;-52
2021/12/16 14:09:33;;;;;;;7.43;3.60;;;8.60;99.90;;;;;;5151192;28;20512;-50
2021/12/16 14:13:33;;;;;;;7.27;4.90;;;8.50;99.90;;;;;;5151164;28;20446;-52
2021/12/16 14:15:26;;;;;;;11.40;5.43;;;8.50;99.90;;;;;;5151182;28;20465;-52
2021/12/16 14:18:07;;;;;;;9.53;5.07;;;8.50;99.90;;;;;;5139071;28;20459;-54
2021/12/16 14:23:50;;;;;;;23.97;7.73;;;8.30;99.90;;;;;;5155114;28;20463;-53
2021/12/16 14:45:18;;;;;;;21.73;5.40;;;7.90;99.90;;;;;;5142653;28;20539;-54
2021/12/16 14:48:02;;;;;;;13.00;5.10;;;7.90;99.90;;;;;;5141906;28;20468;-53
2021/12/16 14:50:44;;;;;;;10.57;5.50;;;7.80;99.90;;;;;;5133878;28;20454;-51
2021/12/16 14:53:26;;;;;;;22.73;7.67;;;7.80;99.90;;;;;;5154254;28;20468;-53
2021/12/16 14:56:31;;;;;;;14.17;5.80;;;7.70;99.90;;;;;;5158374;28;20435;-55
2021/12/16 14:59:14;;;;;;;7.50;3.07;;;7.70;99.90;;;;;;5153372;28;21020;-52
2021/12/16 15:01:49;;;;;;;7.63;4.43;;;7.70;99.90;;;;;;5142380;28;20447;-52
2021/12/16 15:04:25;;;;;;;9.07;4.03;;;7.60;99.90;;;;;;5134429;28;20440;-52
2021/12/16 15:07:04;;;;;;;20.77;8.40;;;7.60;99.90;;;;;;5156558;28;20439;-50
2021/12/16 15:09:38;;;;;;;18.43;7.17;;;7.60;99.90;;;;;;5157952;28;20586;-51
2021/12/16 15:15:09;;;;;;;4.37;3.97;;;7.50;99.90;;;;;;5157235;28;20518;-52
2021/12/16 15:40:59;;;;;;;12.60;6.40;;;7.00;99.90;;;;;;5172158;28;21310;-50
2021/12/16 15:43:33;;;;;;;9.47;4.77;;;7.00;99.90;;;;;;5177705;28;20846;-51
2021/12/16 15:46:05;;;;;;;13.50;6.93;;;7.00;99.90;;;;;;5155471;28;20911;-51
2021/12/16 15:48:35;;;;;;;9.23;5.67;;;7.00;99.90;;;;;;5157913;28;21072;-51
2021/12/16 15:51:11;;;;;;;8.37;4.30;;;6.90;99.90;;;;;;5171893;28;20435;-52
2021/12/16 15:53:49;;;;;;;8.30;3.67;;;6.80;99.90;;;;;;5171500;28;20203;-51
2021/12/16 15:56:23;;;;;;;8.70;4.17;;;6.90;99.90;;;;;;5170051;28;20514;-51
2021/12/16 15:59:02;;;;;;;12.33;4.60;;;6.80;99.90;;;;;;5180208;28;20457;-51
2021/12/16 16:01:34;;;;;;;11.53;5.87;;;6.80;99.90;;;;;;5161461;28;20450;-51
2021/12/16 16:04:16;;;;;;;8.70;5.23;;;6.80;99.90;;;;;;5179589;28;20779;-51
2021/12/16 16:06:57;;;;;;;8.60;5.00;;;6.80;99.90;;;;;;5178283;28;20438;-51
2021/12/16 16:09:46;;;;;;;11.70;4.90;;;6.80;99.90;;;;;;5177850;28;20974;-53
2021/12/16 16:12:18;;;;;;;10.33;4.13;;;6.70;99.90;;;;;;5179265;28;20440;-53
2021/12/16 16:14:50;;;;;;;6.80;4.10;;;6.70;99.90;;;;;;5172929;28;20485;-52
2021/12/16 16:17:24;;;;;;;8.43;5.00;;;6.60;99.90;;;;;;5182869;28;20450;-53
2021/12/16 16:19:55;;;;;;;13.90;4.43;;;6.60;99.90;;;;;;5163884;28;20481;-50
2021/12/16 16:22:26;;;;;;;12.03;5.10;;;6.60;99.90;;;;;;5183231;28;20467;-52
2021/12/16 16:24:57;;;;;;;9.70;4.90;;;6.60;99.90;;;;;;5184164;28;20466;-51
2021/12/16 16:27:30;;;;;;;8.83;4.87;;;6.60;99.90;;;;;;5182796;28;20191;-52
2021/12/16 16:30:05;;;;;;;19.73;4.97;;;6.50;99.90;;;;;;5180140;28;20271;-53
2021/12/16 16:33:01;;;;;;;6.30;4.33;;;6.40;99.90;;;;;;5165950;28;20434;-51
2021/12/16 16:35:41;;;;;;;18.53;4.53;;;6.40;99.90;;;;;;5181075;28;20557;-50
2021/12/16 16:38:19;;;;;;;13.93;5.70;;;6.40;99.90;;;;;;5181388;28;20541;-51
2021/12/16 16:40:52;;;;;;;10.70;4.03;;;6.40;99.90;;;;;;5163526;28;20510;-51
2021/12/16 16:43:29;;;;;;;20.93;5.40;;;6.40;99.90;;;;;;5182466;28;20901;-51
2021/12/16 16:46:19;;;;;;;17.40;3.70;;;6.30;99.90;;;;;;5181951;28;20553;-51